sensor_id;sensor_type;location;lat;lon;timestamp;temperature;humidity
3156;DHT22;1588;50.892;7.082;2023-11-21T00:00:05;8.60;99.90
3156;DHT22;1588;50.892;7.082;2023-11-21T00:05:14;8.60;99.90
3156;DHT22;1588;50.892;7.082;2023-11-21T00:10:17;8.60;99.90
3156;DHT22;1588;50.892;7.082;2023-11-21T00:15:19;8.60;99.90
3156;DHT22;1588;50.892;7.082;2023-11-21T00:20:24;8.60;99.90
3156;DHT22;1588;50.892;7.082;2023-11-21T00:25:26;8.60;99.90
3156;DHT22;1588;50.892;7.082;2023-11-21T00:30:29;8.60;99.90
3156;DHT22;1588;50.892;7.082;2023-11-21T00:35:34;8.50;99.90
3156;DHT22;1588;50.892;7.082;2023-11-21T00:40:36;8.50;99.90
3156;DHT22;1588;50.892;7.082;2023-11-21T00:45:38;8.50;99.90
3156;DHT22;1588;50.892;7.082;2023-11-21T00:50:43;8.50;99.90
3156;DHT22;1588;50.892;7.082;2023-11-21T00:55:46;8.50;99.90
3156;DHT22;1588;50.892;7.082;2023-11-21T01:00:49;8.50;99.90
3156;DHT22;1588;50.892;7.082;2023-11-21T01:05:52;8.50;99.90
3156;DHT22;1588;50.892;7.082;2023-11-21T01:10:55;8.40;99.90
3156;DHT22;1588;50.892;7.082;2023-11-21T01:15:57;8.30;99.90
3156;DHT22;1588;50.892;7.082;2023-11-21T01:21:01;8.20;99.90
3156;DHT22;1588;50.892;7.082;2023-11-21T01:26:04;8.20;99.90
3156;DHT22;1588;50.892;7.082;2023-11-21T01:31:06;8.20;99.90
3156;DHT22;1588;50.892;7.082;2023-11-21T01:36:10;8.20;99.90
3156;DHT22;1588;50.892;7.082;2023-11-21T01:41:13;8.00;99.90
3156;DHT22;1588;50.892;7.082;2023-11-21T01:46:16;7.90;99.90
3156;DHT22;1588;50.892;7.082;2023-11-21T01:51:20;7.90;99.90
3156;DHT22;1588;50.892;7.082;2023-11-21T01:56:23;7.90;99.90
3156;DHT22;1588;50.892;7.082;2023-11-21T02:01:27;8.00;99.90
3156;DHT22;1588;50.892;7.082;2023-11-21T02:06:30;8.00;99.90
3156;DHT22;1588;50.892;7.082;2023-11-21T02:11:33;7.90;99.90
3156;DHT22;1588;50.892;7.082;2023-11-21T02:16:36;7.80;99.90
3156;DHT22;1588;50.892;7.082;2023-11-21T02:21:40;7.80;99.90
3156;DHT22;1588;50.892;7.082;2023-11-21T02:26:44;7.70;99.90
3156;DHT22;1588;50.892;7.082;2023-11-21T02:31:47;7.60;99.90
3156;DHT22;1588;50.892;7.082;2023-11-21T02:36:49;7.50;99.90
3156;DHT22;1588;50.892;7.082;2023-11-21T02:41:53;7.40;99.90
3156;DHT22;1588;50.892;7.082;2023-11-21T02:46:55;7.30;99.90
3156;DHT22;1588;50.892;7.082;2023-11-21T02:51:58;7.30;99.90
3156;DHT22;1588;50.892;7.082;2023-11-21T02:57:04;7.30;99.90
3156;DHT22;1588;50.892;7.082;2023-11-21T03:02:06;7.30;99.90
3156;DHT22;1588;50.892;7.082;2023-11-21T03:07:09;7.30;99.90
3156;DHT22;1588;50.892;7.082;2023-11-21T03:12:13;7.40;99.90
3156;DHT22;1588;50.892;7.082;2023-11-21T03:17:17;7.40;99.90
3156;DHT22;1588;50.892;7.082;2023-11-21T03:22:19;7.40;99.90
3156;DHT22;1588;50.892;7.082;2023-11-21T03:27:23;7.40;99.90
3156;DHT22;1588;50.892;7.082;2023-11-21T03:32:25;7.50;99.90
3156;DHT22;1588;50.892;7.082;2023-11-21T03:37:28;7.60;99.90
3156;DHT22;1588;50.892;7.082;2023-11-21T03:42:31;7.60;99.90
3156;DHT22;1588;50.892;7.082;2023-11-21T03:47:34;7.70;99.90
3156;DHT22;1588;50.892;7.082;2023-11-21T03:52:36;7.70;99.90
3156;DHT22;1588;50.892;7.082;2023-11-21T03:57:40;7.70;99.90
3156;DHT22;1588;50.892;7.082;2023-11-21T04:02:43;7.70;99.90
3156;DHT22;1588;50.892;7.082;2023-11-21T04:07:45;7.70;99.90
3156;DHT22;1588;50.892;7.082;2023-11-21T04:12:49;7.70;99.90
3156;DHT22;1588;50.892;7.082;2023-11-21T04:17:51;7.70;99.90
3156;DHT22;1588;50.892;7.082;2023-11-21T04:22:53;7.70;99.90
3156;DHT22;1588;50.892;7.082;2023-11-21T04:27:57;7.70;99.90
3156;DHT22;1588;50.892;7.082;2023-11-21T04:32:59;7.70;99.90
3156;DHT22;1588;50.892;7.082;2023-11-21T04:38:01;7.70;99.90
3156;DHT22;1588;50.892;7.082;2023-11-21T04:43:05;7.70;99.90
3156;DHT22;1588;50.892;7.082;2023-11-21T04:48:07;7.70;99.90
3156;DHT22;1588;50.892;7.082;2023-11-21T04:53:11;7.70;99.90
3156;DHT22;1588;50.892;7.082;2023-11-21T04:58:17;7.70;99.90
3156;DHT22;1588;50.892;7.082;2023-11-21T05:03:20;7.70;99.90
3156;DHT22;1588;50.892;7.082;2023-11-21T05:08:27;7.70;99.90
3156;DHT22;1588;50.892;7.082;2023-11-21T05:13:32;7.60;99.90
3156;DHT22;1588;50.892;7.082;2023-11-21T05:18:35;7.70;99.90
3156;DHT22;1588;50.892;7.082;2023-11-21T05:23:38;7.70;99.90
3156;DHT22;1588;50.892;7.082;2023-11-21T05:28:42;7.70;99.90
3156;DHT22;1588;50.892;7.082;2023-11-21T05:33:45;7.70;99.90
3156;DHT22;1588;50.892;7.082;2023-11-21T05:38:47;7.70;99.90
3156;DHT22;1588;50.892;7.082;2023-11-21T05:43:51;7.70;99.90
3156;DHT22;1588;50.892;7.082;2023-11-21T05:48:55;7.70;99.90
3156;DHT22;1588;50.892;7.082;2023-11-21T05:53:57;7.80;99.90
3156;DHT22;1588;50.892;7.082;2023-11-21T05:59:01;7.80;99.90
3156;DHT22;1588;50.892;7.082;2023-11-21T06:04:04;7.80;99.90
3156;DHT22;1588;50.892;7.082;2023-11-21T06:09:09;7.80;99.90
3156;DHT22;1588;50.892;7.082;2023-11-21T06:14:14;7.70;99.90
3156;DHT22;1588;50.892;7.082;2023-11-21T06:19:18;7.80;99.90
3156;DHT22;1588;50.892;7.082;2023-11-21T06:24:21;7.80;99.90
3156;DHT22;1588;50.892;7.082;2023-11-21T06:29:25;7.80;99.90
3156;DHT22;1588;50.892;7.082;2023-11-21T06:34:27;7.80;99.90
3156;DHT22;1588;50.892;7.082;2023-11-21T06:39:31;7.80;99.90
3156;DHT22;1588;50.892;7.082;2023-11-21T06:44:34;7.90;99.90
3156;DHT22;1588;50.892;7.082;2023-11-21T06:49:38;7.90;99.90
3156;DHT22;1588;50.892;7.082;2023-11-21T06:54:41;7.90;99.90
3156;DHT22;1588;50.892;7.082;2023-11-21T06:59:45;7.90;99.90
3156;DHT22;1588;50.892;7.082;2023-11-21T07:04:47;7.90;99.90
3156;DHT22;1588;50.892;7.082;2023-11-21T07:09:50;7.90;99.90
3156;DHT22;1588;50.892;7.082;2023-11-21T07:14:54;7.90;99.90
3156;DHT22;1588;50.892;7.082;2023-11-21T07:19:56;7.90;99.90
3156;DHT22;1588;50.892;7.082;2023-11-21T07:24:59;7.90;99.90
3156;DHT22;1588;50.892;7.082;2023-11-21T07:30:03;8.00;99.90
3156;DHT22;1588;50.892;7.082;2023-11-21T07:35:07;8.00;99.90
3156;DHT22;1588;50.892;7.082;2023-11-21T07:40:10;8.00;99.90
3156;DHT22;1588;50.892;7.082;2023-11-21T07:45:15;8.20;99.90
3156;DHT22;1588;50.892;7.082;2023-11-21T07:50:17;8.20;99.90
3156;DHT22;1588;50.892;7.082;2023-11-21T07:55:21;8.20;99.90
3156;DHT22;1588;50.892;7.082;2023-11-21T08:00:24;8.30;99.90
3156;DHT22;1588;50.892;7.082;2023-11-21T08:05:31;8.30;99.90
3156;DHT22;1588;50.892;7.082;2023-11-21T08:10:33;8.40;99.90
3156;DHT22;1588;50.892;7.082;2023-11-21T08:15:37;8.50;99.90
3156;DHT22;1588;50.892;7.082;2023-11-21T08:20:40;8.50;99.90
3156;DHT22;1588;50.892;7.082;2023-11-21T08:25:43;8.60;99.90
3156;DHT22;1588;50.892;7.082;2023-11-21T08:30:47;8.70;99.90
3156;DHT22;1588;50.892;7.082;2023-11-21T08:35:49;8.80;99.90
3156;DHT22;1588;50.892;7.082;2023-11-21T08:40:52;9.00;99.90
3156;DHT22;1588;50.892;7.082;2023-11-21T08:45:57;9.00;99.90
3156;DHT22;1588;50.892;7.082;2023-11-21T08:50:59;9.00;99.90
3156;DHT22;1588;50.892;7.082;2023-11-21T08:56:02;9.10;99.90
3156;DHT22;1588;50.892;7.082;2023-11-21T09:01:06;9.20;99.90
3156;DHT22;1588;50.892;7.082;2023-11-21T09:06:09;9.30;99.90
3156;DHT22;1588;50.892;7.082;2023-11-21T09:11:12;9.30;99.90
3156;DHT22;1588;50.892;7.082;2023-11-21T09:16:16;9.40;99.90
3156;DHT22;1588;50.892;7.082;2023-11-21T09:21:18;9.50;99.90
3156;DHT22;1588;50.892;7.082;2023-11-21T09:26:20;9.60;99.90
3156;DHT22;1588;50.892;7.082;2023-11-21T09:31:25;9.60;99.90
3156;DHT22;1588;50.892;7.082;2023-11-21T09:36:31;9.70;99.90
3156;DHT22;1588;50.892;7.082;2023-11-21T09:41:40;9.60;99.90
3156;DHT22;1588;50.892;7.082;2023-11-21T09:46:50;9.60;99.90
3156;DHT22;1588;50.892;7.082;2023-11-21T09:51:55;9.60;99.90
3156;DHT22;1588;50.892;7.082;2023-11-21T09:56:59;9.60;99.90
3156;DHT22;1588;50.892;7.082;2023-11-21T10:02:03;9.60;99.90
3156;DHT22;1588;50.892;7.082;2023-11-21T10:07:09;9.60;99.90
3156;DHT22;1588;50.892;7.082;2023-11-21T10:12:15;9.70;99.90
3156;DHT22;1588;50.892;7.082;2023-11-21T10:17:22;9.70;99.90
3156;DHT22;1588;50.892;7.082;2023-11-21T10:22:27;9.70;99.90
3156;DHT22;1588;50.892;7.082;2023-11-21T10:27:29;9.80;99.90
3156;DHT22;1588;50.892;7.082;2023-11-21T10:32:33;10.00;99.90
3156;DHT22;1588;50.892;7.082;2023-11-21T10:37:36;10.00;99.90
3156;DHT22;1588;50.892;7.082;2023-11-21T10:42:41;10.00;99.90
3156;DHT22;1588;50.892;7.082;2023-11-21T10:47:45;10.10;99.90
3156;DHT22;1588;50.892;7.082;2023-11-21T10:52:48;10.30;99.90
3156;DHT22;1588;50.892;7.082;2023-11-21T10:57:53;10.40;99.90
3156;DHT22;1588;50.892;7.082;2023-11-21T11:02:58;10.30;99.90
3156;DHT22;1588;50.892;7.082;2023-11-21T11:08:04;10.30;99.90
3156;DHT22;1588;50.892;7.082;2023-11-21T11:13:07;10.20;99.90
3156;DHT22;1588;50.892;7.082;2023-11-21T11:18:12;10.20;99.90
3156;DHT22;1588;50.892;7.082;2023-11-21T11:23:31;10.20;99.90
3156;DHT22;1588;50.892;7.082;2023-11-21T11:28:44;10.10;99.90
3156;DHT22;1588;50.892;7.082;2023-11-21T11:33:53;10.20;99.90
3156;DHT22;1588;50.892;7.082;2023-11-21T11:38:59;10.20;99.90
3156;DHT22;1588;50.892;7.082;2023-11-21T11:50:03;10.20;99.90
3156;DHT22;1588;50.892;7.082;2023-11-21T11:55:09;10.20;99.90
3156;DHT22;1588;50.892;7.082;2023-11-21T12:00:13;10.20;99.90
3156;DHT22;1588;50.892;7.082;2023-11-21T12:05:22;10.30;99.90
3156;DHT22;1588;50.892;7.082;2023-11-21T12:10:29;10.30;99.90
3156;DHT22;1588;50.892;7.082;2023-11-21T12:15:32;10.30;99.90
3156;DHT22;1588;50.892;7.082;2023-11-21T12:20:36;10.30;99.90
3156;DHT22;1588;50.892;7.082;2023-11-21T12:25:39;10.20;99.90
3156;DHT22;1588;50.892;7.082;2023-11-21T12:30:43;10.30;99.90
3156;DHT22;1588;50.892;7.082;2023-11-21T12:35:47;10.20;99.90
3156;DHT22;1588;50.892;7.082;2023-11-21T12:40:50;10.30;99.90
3156;DHT22;1588;50.892;7.082;2023-11-21T12:46:12;10.50;99.90
3156;DHT22;1588;50.892;7.082;2023-11-21T12:51:19;10.40;99.90
3156;DHT22;1588;50.892;7.082;2023-11-21T12:56:24;10.50;99.90
3156;DHT22;1588;50.892;7.082;2023-11-21T13:01:28;10.40;99.90
3156;DHT22;1588;50.892;7.082;2023-11-21T13:06:32;10.50;99.90
3156;DHT22;1588;50.892;7.082;2023-11-21T13:11:39;10.60;99.90
3156;DHT22;1588;50.892;7.082;2023-11-21T13:16:42;10.70;99.90
3156;DHT22;1588;50.892;7.082;2023-11-21T13:21:48;10.70;99.90
3156;DHT22;1588;50.892;7.082;2023-11-21T13:26:51;10.60;99.90
3156;DHT22;1588;50.892;7.082;2023-11-21T13:31:53;10.50;99.90
3156;DHT22;1588;50.892;7.082;2023-11-21T13:36:58;10.40;99.90
3156;DHT22;1588;50.892;7.082;2023-11-21T13:42:02;10.40;99.90
3156;DHT22;1588;50.892;7.082;2023-11-21T13:47:07;10.50;99.90
3156;DHT22;1588;50.892;7.082;2023-11-21T13:52:11;10.50;99.90
3156;DHT22;1588;50.892;7.082;2023-11-21T13:57:17;10.50;99.90
3156;DHT22;1588;50.892;7.082;2023-11-21T14:02:21;10.50;99.90
3156;DHT22;1588;50.892;7.082;2023-11-21T14:07:34;10.50;99.90
3156;DHT22;1588;50.892;7.082;2023-11-21T14:12:40;10.40;99.90
3156;DHT22;1588;50.892;7.082;2023-11-21T14:17:43;10.40;99.90
3156;DHT22;1588;50.892;7.082;2023-11-21T14:22:47;10.40;99.90
3156;DHT22;1588;50.892;7.082;2023-11-21T14:27:49;10.40;99.90
3156;DHT22;1588;50.892;7.082;2023-11-21T14:32:53;10.40;99.90
3156;DHT22;1588;50.892;7.082;2023-11-21T14:37:58;10.40;99.90
3156;DHT22;1588;50.892;7.082;2023-11-21T14:43:09;10.30;99.90
3156;DHT22;1588;50.892;7.082;2023-11-21T14:48:19;10.30;99.90
3156;DHT22;1588;50.892;7.082;2023-11-21T14:53:40;10.30;99.90
3156;DHT22;1588;50.892;7.082;2023-11-21T14:59:14;10.20;99.90
3156;DHT22;1588;50.892;7.082;2023-11-21T15:04:28;10.20;99.90
3156;DHT22;1588;50.892;7.082;2023-11-21T15:09:40;10.20;99.90
3156;DHT22;1588;50.892;7.082;2023-11-21T15:15:02;10.20;99.90
3156;DHT22;1588;50.892;7.082;2023-11-21T15:20:17;10.10;99.90
3156;DHT22;1588;50.892;7.082;2023-11-21T15:25:24;10.10;99.90
3156;DHT22;1588;50.892;7.082;2023-11-21T15:30:27;10.10;99.90
3156;DHT22;1588;50.892;7.082;2023-11-21T15:35:32;10.10;99.90
3156;DHT22;1588;50.892;7.082;2023-11-21T15:40:40;10.10;99.90
3156;DHT22;1588;50.892;7.082;2023-11-21T15:45:46;10.00;99.90
3156;DHT22;1588;50.892;7.082;2023-11-21T15:50:49;10.00;99.90
3156;DHT22;1588;50.892;7.082;2023-11-21T15:55:54;10.00;99.90
3156;DHT22;1588;50.892;7.082;2023-11-21T16:00:56;10.00;99.90
3156;DHT22;1588;50.892;7.082;2023-11-21T16:05:59;10.00;99.90
3156;DHT22;1588;50.892;7.082;2023-11-21T16:11:03;10.00;99.90
3156;DHT22;1588;50.892;7.082;2023-11-21T16:16:06;9.90;99.90
3156;DHT22;1588;50.892;7.082;2023-11-21T16:21:11;9.90;99.90
3156;DHT22;1588;50.892;7.082;2023-11-21T16:26:16;9.90;99.90
3156;DHT22;1588;50.892;7.082;2023-11-21T16:31:22;9.90;99.90
3156;DHT22;1588;50.892;7.082;2023-11-21T16:36:24;9.80;99.90
3156;DHT22;1588;50.892;7.082;2023-11-21T16:41:28;9.80;99.90
3156;DHT22;1588;50.892;7.082;2023-11-21T16:46:37;9.80;99.90
3156;DHT22;1588;50.892;7.082;2023-11-21T16:52:03;9.80;99.90
3156;DHT22;1588;50.892;7.082;2023-11-21T16:57:16;9.70;99.90
3156;DHT22;1588;50.892;7.082;2023-11-21T17:02:18;9.70;99.90
3156;DHT22;1588;50.892;7.082;2023-11-21T17:07:21;9.70;99.90
3156;DHT22;1588;50.892;7.082;2023-11-21T17:12:36;9.70;99.90
3156;DHT22;1588;50.892;7.082;2023-11-21T17:17:38;9.60;99.90
3156;DHT22;1588;50.892;7.082;2023-11-21T17:22:40;9.60;99.90
3156;DHT22;1588;50.892;7.082;2023-11-21T17:27:44;9.60;99.90
3156;DHT22;1588;50.892;7.082;2023-11-21T17:32:47;9.60;99.90
3156;DHT22;1588;50.892;7.082;2023-11-21T17:37:50;9.50;99.90
3156;DHT22;1588;50.892;7.082;2023-11-21T17:42:53;9.50;99.90
3156;DHT22;1588;50.892;7.082;2023-11-21T17:47:59;9.50;99.90
3156;DHT22;1588;50.892;7.082;2023-11-21T17:53:02;9.50;99.90
3156;DHT22;1588;50.892;7.082;2023-11-21T17:58:06;9.40;99.90
3156;DHT22;1588;50.892;7.082;2023-11-21T18:03:10;9.30;99.90
3156;DHT22;1588;50.892;7.082;2023-11-21T18:08:12;9.20;99.90
3156;DHT22;1588;50.892;7.082;2023-11-21T18:13:17;9.20;99.90
3156;DHT22;1588;50.892;7.082;2023-11-21T18:18:21;9.10;99.90
3156;DHT22;1588;50.892;7.082;2023-11-21T18:23:23;9.00;99.90
3156;DHT22;1588;50.892;7.082;2023-11-21T18:28:28;8.90;99.90
3156;DHT22;1588;50.892;7.082;2023-11-21T18:33:30;8.80;99.90
3156;DHT22;1588;50.892;7.082;2023-11-21T18:38:34;8.70;99.90
3156;DHT22;1588;50.892;7.082;2023-11-21T18:43:41;8.60;99.90
3156;DHT22;1588;50.892;7.082;2023-11-21T18:48:43;8.50;99.90
3156;DHT22;1588;50.892;7.082;2023-11-21T18:53:48;8.50;99.90
3156;DHT22;1588;50.892;7.082;2023-11-21T18:58:54;8.50;99.90
3156;DHT22;1588;50.892;7.082;2023-11-21T19:03:57;8.30;99.90
3156;DHT22;1588;50.892;7.082;2023-11-21T19:08:59;8.20;99.90
3156;DHT22;1588;50.892;7.082;2023-11-21T19:14:03;8.10;99.90
3156;DHT22;1588;50.892;7.082;2023-11-21T19:19:10;8.10;99.90
3156;DHT22;1588;50.892;7.082;2023-11-21T19:24:12;8.00;99.90
3156;DHT22;1588;50.892;7.082;2023-11-21T19:29:16;7.80;99.90
3156;DHT22;1588;50.892;7.082;2023-11-21T19:34:19;7.80;99.90
3156;DHT22;1588;50.892;7.082;2023-11-21T19:39:21;7.70;99.90
3156;DHT22;1588;50.892;7.082;2023-11-21T19:44:25;7.50;99.90
3156;DHT22;1588;50.892;7.082;2023-11-21T19:49:29;7.40;99.90
3156;DHT22;1588;50.892;7.082;2023-11-21T19:54:31;7.30;99.90
3156;DHT22;1588;50.892;7.082;2023-11-21T19:59:35;7.20;99.90
3156;DHT22;1588;50.892;7.082;2023-11-21T20:04:40;7.10;99.90
3156;DHT22;1588;50.892;7.082;2023-11-21T20:09:43;7.00;99.90
3156;DHT22;1588;50.892;7.082;2023-11-21T20:14:47;7.00;99.90
3156;DHT22;1588;50.892;7.082;2023-11-21T20:19:50;6.90;99.90
3156;DHT22;1588;50.892;7.082;2023-11-21T20:24:52;6.90;99.90
3156;DHT22;1588;50.892;7.082;2023-11-21T20:29:56;6.80;99.90
3156;DHT22;1588;50.892;7.082;2023-11-21T20:35:00;6.90;99.90
3156;DHT22;1588;50.892;7.082;2023-11-21T20:40:04;6.90;99.90
3156;DHT22;1588;50.892;7.082;2023-11-21T20:45:10;6.90;99.90
3156;DHT22;1588;50.892;7.082;2023-11-21T20:50:14;6.90;99.90
3156;DHT22;1588;50.892;7.082;2023-11-21T20:55:19;7.00;99.90
3156;DHT22;1588;50.892;7.082;2023-11-21T21:00:23;7.00;99.90
3156;DHT22;1588;50.892;7.082;2023-11-21T21:05:26;7.10;99.90
3156;DHT22;1588;50.892;7.082;2023-11-21T21:10:29;7.10;99.90
3156;DHT22;1588;50.892;7.082;2023-11-21T21:15:33;7.10;99.90
3156;DHT22;1588;50.892;7.082;2023-11-21T21:20:38;7.10;99.90
3156;DHT22;1588;50.892;7.082;2023-11-21T21:25:41;7.20;99.90
3156;DHT22;1588;50.892;7.082;2023-11-21T21:30:46;7.10;99.90
3156;DHT22;1588;50.892;7.082;2023-11-21T21:35:51;7.10;99.90
3156;DHT22;1588;50.892;7.082;2023-11-21T21:40:53;7.10;99.90
3156;DHT22;1588;50.892;7.082;2023-11-21T21:45:57;7.00;99.90
3156;DHT22;1588;50.892;7.082;2023-11-21T21:51:00;7.00;99.90
3156;DHT22;1588;50.892;7.082;2023-11-21T21:56:02;7.00;99.90
3156;DHT22;1588;50.892;7.082;2023-11-21T22:01:06;6.90;99.90
3156;DHT22;1588;50.892;7.082;2023-11-21T22:06:09;6.70;99.90
3156;DHT22;1588;50.892;7.082;2023-11-21T22:11:13;6.60;99.90
3156;DHT22;1588;50.892;7.082;2023-11-21T22:16:17;6.40;99.90
3156;DHT22;1588;50.892;7.082;2023-11-21T22:21:20;6.20;99.90
3156;DHT22;1588;50.892;7.082;2023-11-21T22:26:25;6.00;99.90
3156;DHT22;1588;50.892;7.082;2023-11-21T22:31:29;5.90;99.90
3156;DHT22;1588;50.892;7.082;2023-11-21T22:36:31;6.00;99.90
3156;DHT22;1588;50.892;7.082;2023-11-21T22:41:34;6.00;99.90
3156;DHT22;1588;50.892;7.082;2023-11-21T22:46:42;6.10;99.90
3156;DHT22;1588;50.892;7.082;2023-11-21T22:51:45;6.10;99.90
3156;DHT22;1588;50.892;7.082;2023-11-21T22:56:48;6.10;99.90
3156;DHT22;1588;50.892;7.082;2023-11-21T23:01:53;6.10;99.90
3156;DHT22;1588;50.892;7.082;2023-11-21T23:06:56;6.10;99.90
3156;DHT22;1588;50.892;7.082;2023-11-21T23:11:58;6.00;99.90
3156;DHT22;1588;50.892;7.082;2023-11-21T23:17:02;5.90;99.90
3156;DHT22;1588;50.892;7.082;2023-11-21T23:22:06;5.80;99.90
3156;DHT22;1588;50.892;7.082;2023-11-21T23:27:10;5.80;99.90
3156;DHT22;1588;50.892;7.082;2023-11-21T23:32:20;5.70;99.90
3156;DHT22;1588;50.892;7.082;2023-11-21T23:37:23;5.60;99.90
3156;DHT22;1588;50.892;7.082;2023-11-21T23:42:25;5.50;99.90
3156;DHT22;1588;50.892;7.082;2023-11-21T23:47:29;5.50;99.90
3156;DHT22;1588;50.892;7.082;2023-11-21T23:52:32;5.50;99.90
3156;DHT22;1588;50.892;7.082;2023-11-21T23:57:35;5.50;99.90
